Time;durP1;ratioP1;P1;durP2;ratioP2;P2;SDS_P1;SDS_P2;PMS_P1;PMS_P2;Temp;Humidity;BMP_temperature;BMP_pressure;BME280_temperature;BME280_humidity;BME280_pressure;Samples;Min_cycle;Max_cycle;Signal;HPM_P1;HPM_P2
2021/05/19 00:02:11;;;;;;;15.63;4.35;;;;;;;22.91;31.55;98597.91;4948085;29;20308;-60
2021/05/19 00:04:36;;;;;;;12.60;4.18;;;;;;;22.90;31.74;98593.59;4948114;29;20039;-59
2021/05/19 00:07:03;;;;;;;9.38;4.57;;;;;;;22.81;31.80;98592.63;4947938;29;20042;-60
2021/05/19 00:09:28;;;;;;;11.38;4.18;;;;;;;22.84;31.54;98594.97;4947144;29;20071;-61
2021/05/19 00:11:54;;;;;;;13.65;4.97;;;;;;;22.78;32.09;98592.91;4948142;29;20044;-59
2021/05/19 00:14:20;;;;;;;13.13;5.45;;;;;;;22.72;32.17;98596.09;4948156;29;20027;-59
2021/05/19 00:16:48;;;;;;;8.18;4.95;;;;;;;22.41;32.20;98554.78;4947962;29;20035;-59
2021/05/19 00:19:15;;;;;;;7.85;3.67;;;;;;;22.87;31.77;98584.16;4947736;29;20040;-59
2021/05/19 00:21:40;;;;;;;9.73;4.65;;;;;;;22.57;32.54;98588.59;4947954;29;20107;-58
2021/05/19 00:24:08;;;;;;;13.93;4.82;;;;;;;22.33;32.70;98578.41;4947732;29;20052;-58
2021/05/19 00:26:34;;;;;;;11.80;4.53;;;;;;;22.50;32.64;98591.88;4947824;29;20067;-57
2021/05/19 00:29:05;;;;;;;8.77;4.60;;;;;;;22.02;32.99;98535.41;4947877;29;20332;-61
2021/05/19 00:31:33;;;;;;;9.85;4.57;;;;;;;22.26;32.66;98577.25;4947650;29;20027;-60
2021/05/19 00:34:11;;;;;;;8.90;4.25;;;;;;;22.20;33.07;98591.81;4947577;29;20051;-59
2021/05/19 00:36:37;;;;;;;10.43;4.70;;;;;;;22.17;33.07;98599.97;4947463;29;20040;-60
2021/05/19 00:39:06;;;;;;;8.98;4.82;;;;;;;21.81;33.41;98551.28;4947616;29;20039;-60
2021/05/19 00:41:32;;;;;;;16.67;4.65;;;;;;;22.16;33.21;98587.75;4947664;29;20038;-57
2021/05/19 00:44:09;;;;;;;7.90;4.07;;;;;;;22.21;33.06;98571.53;4947440;29;20090;-59
2021/05/19 00:46:35;;;;;;;8.57;4.45;;;;;;;22.20;33.19;98581.25;4941026;29;20052;-60
2021/05/19 00:49:03;;;;;;;15.70;4.60;;;;;;;21.94;33.07;98528.13;4947397;29;20044;-60
2021/05/19 00:51:29;;;;;;;9.02;4.20;;;;;;;22.20;33.27;98569.84;4947349;29;20031;-60
2021/05/19 00:53:56;;;;;;;12.27;4.72;;;;;;;22.07;33.44;98578.00;4947432;29;20023;-61
2021/05/19 00:56:24;;;;;;;12.25;4.68;;;;;;;22.06;33.27;98576.31;4946392;29;20040;-60
2021/05/19 00:58:59;;;;;;;10.98;4.50;;;;;;;21.74;33.47;98521.97;4947292;29;20362;-60
2021/05/19 01:01:25;;;;;;;10.75;4.50;;;;;;;22.00;33.73;98564.50;4947240;29;20027;-59
2021/05/19 01:03:52;;;;;;;8.88;4.55;;;;;;;22.02;33.50;98562.59;4947080;29;20079;-59
2021/05/19 01:06:32;;;;;;;8.10;4.03;;;;;;;21.94;33.93;98572.97;4946837;29;20350;-59
2021/05/19 01:11:42;;;;;;;9.52;4.38;;;;;;;21.86;33.73;98559.59;4946905;29;20051;-58
2021/05/19 01:14:08;;;;;;;9.35;4.15;;;;;;;22.05;33.71;98561.50;4946933;29;20207;-58
2021/05/19 01:16:34;;;;;;;10.00;5.00;;;;;;;22.09;33.87;98560.25;4947006;29;20090;-58
2021/05/19 01:19:01;;;;;;;10.45;4.38;;;;;;;22.01;34.06;98560.91;4946657;29;20111;-59
2021/05/19 01:21:28;;;;;;;10.60;4.20;;;;;;;21.96;33.64;98559.63;4946873;29;20333;-59
2021/05/19 01:23:54;;;;;;;12.40;4.43;;;;;;;22.00;33.83;98561.88;4946621;29;20362;-59
2021/05/19 01:26:20;;;;;;;10.40;4.22;;;;;;;21.85;34.37;98566.69;4946395;29;20051;-59
2021/05/19 01:28:46;;;;;;;14.30;3.83;;;;;;;21.87;34.37;98564.75;4946885;29;20091;-60
2021/05/19 01:31:12;;;;;;;10.13;3.47;;;;;;;21.66;34.59;98546.38;4946596;29;20051;-58
2021/05/19 01:33:39;;;;;;;10.40;4.18;;;;;;;21.63;34.72;98557.16;4946607;29;20219;-60
2021/05/19 01:36:06;;;;;;;7.97;4.28;;;;;;;21.77;34.70;98555.13;4946593;29;20024;-59
2021/05/19 01:38:35;;;;;;;9.20;4.22;;;;;;;21.45;35.00;98554.25;4946435;29;20354;-59
2021/05/19 01:41:02;;;;;;;11.88;4.22;;;;;;;21.48;34.77;98553.19;4946593;29;20040;-60
2021/05/19 01:43:38;;;;;;;9.50;4.53;;;;;;;21.57;34.76;98555.03;4945109;29;20027;-62
2021/05/19 01:46:06;;;;;;;13.43;4.53;;;;;;;21.59;34.84;98547.00;4945976;29;20031;-60
2021/05/19 01:48:33;;;;;;;9.02;3.90;;;;;;;21.63;34.62;98551.88;4946301;29;20036;-61
2021/05/19 01:51:00;;;;;;;9.02;3.80;;;;;;;21.74;34.72;98548.31;4946157;29;20367;-59
2021/05/19 01:53:29;;;;;;;8.88;4.00;;;;;;;21.50;35.10;98567.88;4946163;29;20051;-60
2021/05/19 01:55:55;;;;;;;6.60;3.58;;;;;;;21.59;34.84;98542.59;4946275;29;20096;-60
2021/05/19 01:58:21;;;;;;;6.57;3.70;;;;;;;21.62;35.22;98557.28;4946239;29;20027;-60
2021/05/19 02:00:47;;;;;;;8.40;3.40;;;;;;;21.64;35.09;98536.91;4946246;29;20086;-59
2021/05/19 02:03:13;;;;;;;12.10;3.67;;;;;;;21.55;35.10;98563.09;4945833;29;20317;-59
2021/05/19 02:05:39;;;;;;;9.73;3.70;;;;;;;21.76;34.90;98535.84;4945986;29;20324;-59
2021/05/19 02:08:07;;;;;;;14.63;4.28;;;;;;;21.23;35.06;98480.66;4944726;29;20027;-59
2021/05/19 02:10:34;;;;;;;9.18;3.58;;;;;;;21.61;35.21;98531.91;4946110;29;20529;-59
2021/05/19 02:13:05;;;;;;;11.57;3.85;;;;;;;21.11;35.51;98483.38;4945879;29;20035;-60
2021/05/19 02:15:31;;;;;;;8.50;4.10;;;;;;;21.45;35.41;98532.34;4945894;29;20027;-61
2021/05/19 02:17:59;;;;;;;12.10;4.03;;;;;;;21.59;35.69;98518.03;4945417;29;20332;-61
2021/05/19 02:20:25;;;;;;;8.20;4.25;;;;;;;21.57;35.29;98497.06;4945700;29;20031;-62
2021/05/19 02:22:51;;;;;;;10.48;3.95;;;;;;;21.58;35.44;98472.41;4945695;29;20312;-61
2021/05/19 02:25:19;;;;;;;7.00;3.45;;;;;;;21.50;35.67;98480.91;4945693;29;20028;-60
2021/05/19 02:27:46;;;;;;;12.57;3.75;;;;;;;21.44;35.94;98489.38;4945551;29;20324;-60
2021/05/19 02:30:13;;;;;;;11.15;3.60;;;;;;;21.32;35.74;98453.53;4945519;29;20035;-60
2021/05/19 02:32:39;;;;;;;7.93;3.88;;;;;;;21.67;35.36;98505.84;4945355;29;20098;-60
2021/05/19 02:35:06;;;;;;;10.75;3.95;;;;;;;21.66;35.64;98504.19;4945320;29;20054;-59
2021/05/19 02:37:32;;;;;;;10.07;3.80;;;;;;;21.67;35.74;98495.31;4944305;29;20098;-60
2021/05/19 02:39:58;;;;;;;11.63;3.95;;;;;;;21.72;35.77;98493.13;4945448;29;20075;-61
2021/05/19 02:42:24;;;;;;;6.82;3.90;;;;;;;21.96;35.12;98483.19;4945361;29;20039;-62
2021/05/19 02:44:50;;;;;;;8.25;3.97;;;;;;;21.92;35.60;98487.06;4945338;29;20086;-61
2021/05/19 02:47:15;;;;;;;8.13;4.10;;;;;;;21.91;35.57;98483.59;4945029;29;20433;-59
2021/05/19 02:49:41;;;;;;;16.05;4.18;;;;;;;21.80;35.87;98486.34;4945234;29;20198;-59
2021/05/19 02:52:07;;;;;;;9.73;3.83;;;;;;;21.70;36.29;98507.38;4945513;29;20328;-60
2021/05/19 02:54:34;;;;;;;9.00;4.38;;;;;;;21.69;36.16;98490.75;4945332;29;20090;-59
2021/05/19 02:57:00;;;;;;;5.55;3.78;;;;;;;21.66;36.26;98509.47;4945098;29;20120;-60
2021/05/19 02:59:26;;;;;;;8.27;4.65;;;;;;;21.66;36.43;98512.09;4945163;29;20050;-59
2021/05/19 03:01:52;;;;;;;9.57;4.47;;;;;;;21.93;36.52;98523.81;4945054;29;20031;-60
2021/05/19 03:04:18;;;;;;;8.85;3.97;;;;;;;21.89;36.47;98546.19;4944933;29;20328;-60
2021/05/19 03:06:44;;;;;;;6.35;3.58;;;;;;;21.89;36.73;98565.47;4945163;29;20052;-60
2021/05/19 03:09:09;;;;;;;11.85;4.18;;;;;;;22.06;36.75;98557.88;4944839;29;20035;-58
2021/05/19 03:11:35;;;;;;;8.88;4.03;;;;;;;22.11;36.47;98560.94;4945164;29;20037;-59
2021/05/19 03:14:02;;;;;;;9.57;3.85;;;;;;;22.22;36.37;98550.28;4944856;29;20063;-60
2021/05/19 03:16:28;;;;;;;9.65;4.10;;;;;;;22.21;36.79;98547.78;4944783;29;20248;-59
2021/05/19 03:18:54;;;;;;;10.60;4.15;;;;;;;22.26;36.80;98561.41;4944890;29;20048;-59
2021/05/19 03:21:21;;;;;;;14.30;4.20;;;;;;;22.47;36.71;98553.41;4944743;29;20035;-59
2021/05/19 03:23:47;;;;;;;11.18;4.47;;;;;;;22.45;36.27;98547.44;4944762;29;20086;-60
2021/05/19 03:26:13;;;;;;;8.98;3.75;;;;;;;22.47;35.97;98548.13;4944514;29;20316;-61
2021/05/19 03:28:40;;;;;;;8.35;4.07;;;;;;;22.60;35.74;98553.13;4944784;29;20363;-61
2021/05/19 03:31:06;;;;;;;7.93;3.58;;;;;;;22.78;35.63;98549.84;4944793;29;20023;-60
2021/05/19 03:33:32;;;;;;;11.25;4.30;;;;;;;22.93;35.63;98546.63;4944541;29;20094;-61
2021/05/19 03:35:58;;;;;;;9.15;3.72;;;;;;;23.25;35.26;98545.50;4944611;29;20324;-59
2021/05/19 03:38:23;;;;;;;8.07;4.07;;;;;;;23.23;34.62;98558.03;4937095;29;20032;-59
2021/05/19 03:40:49;;;;;;;8.55;4.15;;;;;;;;;;4944273;29;20123;-60
2021/05/19 03:43:15;;;;;;;7.38;4.30;;;;;;;23.24;34.99;98570.25;4944516;29;20043;-59
2021/05/19 03:45:41;;;;;;;9.18;4.28;;;;;;;23.10;34.37;98558.28;4944467;29;20040;-62
2021/05/19 03:48:07;;;;;;;9.77;4.43;;;;;;;23.22;34.94;98581.94;4944341;29;20036;-61
2021/05/19 03:50:34;;;;;;;8.35;3.65;;;;;;;23.12;34.46;98562.63;4944497;29;20027;-60
2021/05/19 03:53:02;;;;;;;6.07;4.20;;;;;;;23.03;33.92;98532.56;4944101;29;20036;-61
2021/05/19 03:55:28;;;;;;;7.78;3.75;;;;;;;23.11;34.66;98577.63;4944717;29;20031;-60
2021/05/19 03:57:54;;;;;;;13.05;4.30;;;;;;;23.31;34.13;98572.31;4944423;29;20027;-60
2021/05/19 04:00:24;;;;;;;13.15;4.30;;;;;;;22.79;33.96;98515.38;4944285;29;20216;-60
2021/05/19 04:02:50;;;;;;;10.18;4.22;;;;;;;23.22;34.35;98572.19;4943915;29;20055;-59
2021/05/19 04:05:22;;;;;;;7.35;4.20;;;;;;;23.53;35.02;98564.06;4944574;29;20265;-59
2021/05/19 04:07:49;;;;;;;8.77;4.35;;;;;;;23.56;34.36;98561.13;4944323;29;20372;-60
2021/05/19 04:10:15;;;;;;;13.05;4.45;;;;;;;23.34;34.47;98564.94;4944303;29;20054;-61
2021/05/19 04:12:41;;;;;;;11.02;4.82;;;;;;;23.45;34.57;98556.03;4944496;29;20028;-59
2021/05/19 04:15:07;;;;;;;14.57;4.45;;;;;;;23.53;34.35;98556.16;4944189;29;20333;-60
2021/05/19 04:17:34;;;;;;;8.80;4.03;;;;;;;23.70;34.16;98543.13;4943839;29;20043;-61
2021/05/19 04:20:00;;;;;;;6.50;4.60;;;;;;;23.95;34.24;98558.34;4944396;29;20038;-61
2021/05/19 04:22:26;;;;;;;8.77;4.90;;;;;;;23.94;33.87;98546.13;4944117;29;20028;-60
2021/05/19 04:24:52;;;;;;;11.18;4.05;;;;;;;23.83;34.64;98554.22;4944082;29;20235;-60
2021/05/19 04:27:18;;;;;;;13.55;4.30;;;;;;;23.89;34.93;98558.94;4943956;29;20031;-62
2021/05/19 04:29:44;;;;;;;8.85;4.30;;;;;;;23.59;35.20;98552.09;4943966;29;20028;-63
2021/05/19 04:32:10;;;;;;;11.32;4.50;;;;;;;23.80;35.59;98559.81;4946294;29;20067;-62
2021/05/19 04:34:38;;;;;;;16.15;4.78;;;;;;;23.75;35.69;98565.50;4945894;29;20032;-61
2021/05/19 04:37:11;;;;;;;13.77;4.65;;;;;;;23.71;35.88;98555.38;4945705;29;20038;-61
2021/05/19 04:39:36;;;;;;;14.43;5.10;;;;;;;23.73;35.84;98566.66;4945443;29;20024;-62
2021/05/19 04:42:03;;;;;;;12.30;5.18;;;;;;;23.86;35.56;98563.69;4945370;28;20039;-60
2021/05/19 04:44:28;;;;;;;13.77;5.35;;;;;;;23.94;36.25;98567.28;4945336;29;20034;-63
2021/05/19 04:46:54;;;;;;;15.75;5.10;;;;;;;24.54;36.58;98573.91;4945140;29;20288;-60
2021/05/19 04:49:20;;;;;;;14.40;4.90;;;;;;;24.43;35.08;98569.66;4945534;29;20078;-63
2021/05/19 04:51:46;;;;;;;12.70;4.70;;;;;;;24.85;34.65;98570.09;4946900;29;20111;-61
2021/05/19 04:54:12;;;;;;;15.73;5.15;;;;;;;25.51;33.64;98579.41;4946586;29;20086;-61
2021/05/19 04:56:38;;;;;;;17.25;5.10;;;;;;;25.90;33.44;98578.94;4946940;29;20134;-63
2021/05/19 04:59:07;;;;;;;13.38;4.63;;;;;;;26.14;33.26;98583.56;4947010;29;20051;-60
2021/05/19 05:01:33;;;;;;;10.43;4.35;;;;;;;25.76;33.16;98598.13;4946723;29;20173;-61
2021/05/19 05:03:59;;;;;;;12.20;5.32;;;;;;;25.54;33.83;98604.75;4947002;29;20216;-61
2021/05/19 05:06:24;;;;;;;14.82;5.00;;;;;;;24.69;35.30;98599.91;4946689;29;20035;-61
2021/05/19 05:08:50;;;;;;;14.18;4.70;;;;;;;24.68;35.39;98614.13;4946777;29;20332;-60
2021/05/19 05:11:16;;;;;;;9.60;3.88;;;;;;;24.55;36.34;98612.63;4946803;29;20036;-61
2021/05/19 05:13:42;;;;;;;16.10;4.40;;;;;;;24.92;35.79;98611.69;4946548;29;20032;-62
2021/05/19 05:16:08;;;;;;;11.02;4.63;;;;;;;25.15;35.09;98621.84;4946389;29;20031;-62
2021/05/19 05:18:35;;;;;;;11.15;4.45;;;;;;;25.46;34.74;98608.19;4946475;29;20078;-61
2021/05/19 05:21:02;;;;;;;10.02;4.25;;;;;;;26.14;34.50;98623.38;4946571;29;20074;-60
2021/05/19 05:23:28;;;;;;;7.25;3.90;;;;;;;25.76;34.70;98617.50;4946756;28;20027;-62
2021/05/19 05:25:54;;;;;;;7.05;3.70;;;;;;;25.86;34.91;98625.34;4945733;29;20043;-63
2021/05/19 05:28:20;;;;;;;13.25;4.38;;;;;;;25.17;35.84;98635.78;4945113;29;20351;-62
2021/05/19 05:30:46;;;;;;;11.57;4.03;;;;;;;25.01;36.16;98640.94;4945776;29;20031;-61
2021/05/19 05:33:12;;;;;;;14.70;4.25;;;;;;;25.01;36.21;98640.94;4945729;29;20375;-62
2021/05/19 05:35:37;;;;;;;10.88;3.70;;;;;;;24.98;35.80;98650.00;4945564;29;20269;-64
2021/05/19 05:38:03;;;;;;;5.97;3.67;;;;;;;25.16;35.47;98647.38;4945582;29;20232;-64
2021/05/19 05:40:29;;;;;;;15.40;4.32;;;;;;;25.44;35.66;98653.44;4946205;29;20027;-62
2021/05/19 05:42:55;;;;;;;12.75;3.55;;;;;;;26.14;34.63;98663.19;4946379;29;20220;-62
2021/05/19 05:45:21;;;;;;;8.38;3.50;;;;;;;25.76;35.24;98646.69;4945995;29;20224;-61
2021/05/19 05:47:46;;;;;;;9.20;3.78;;;;;;;25.54;36.71;98656.00;4946085;29;20079;-62
2021/05/19 05:50:12;;;;;;;8.10;3.55;;;;;;;25.24;36.29;98660.69;4942710;29;20032;-62
2021/05/19 05:52:38;;;;;;;8.60;3.45;;;;;;;25.38;36.07;98661.97;4940438;29;20047;-61
2021/05/19 05:55:05;;;;;;;8.98;3.55;;;;;;;25.45;36.38;98665.72;4946089;29;20082;-61
2021/05/19 05:57:31;;;;;;;14.50;3.45;;;;;;;25.40;36.66;98677.75;4945853;29;20098;-62
2021/05/19 05:59:57;;;;;;;7.97;3.67;;;;;;;24.93;37.79;98670.84;4945851;29;20321;-62
2021/05/19 06:02:23;;;;;;;13.40;3.40;;;;;;;24.89;37.70;98674.75;4938047;29;20032;-65
2021/05/19 06:04:49;;;;;;;8.93;2.78;;;;;;;24.79;38.21;98674.81;4946050;29;20045;-63
2021/05/19 06:07:15;;;;;;;7.90;3.00;;;;;;;24.95;38.00;98680.28;4945548;29;20047;-62
2021/05/19 06:09:49;;;;;;;6.95;3.08;;;;;;;24.86;38.30;98686.47;4945667;29;20059;-61
2021/05/19 06:12:15;;;;;;;11.00;3.00;;;;;;;24.84;38.65;98677.88;4940082;29;20261;-60
2021/05/19 06:14:41;;;;;;;11.02;3.47;;;;;;;24.93;38.85;98687.56;4941997;29;20320;-62
2021/05/19 06:17:08;;;;;;;8.05;3.22;;;;;;;24.93;38.73;98692.84;4945306;29;20136;-61
2021/05/19 06:19:33;;;;;;;8.02;2.80;;;;;;;24.99;39.03;98686.13;4945532;29;20095;-60
2021/05/19 06:22:01;;;;;;;7.57;2.53;;;;;;;24.68;39.15;98686.44;4944463;29;20027;-62
2021/05/19 06:24:27;;;;;;;12.98;3.10;;;;;;;24.94;38.99;98685.72;4945582;29;20335;-64
2021/05/19 06:26:53;;;;;;;9.40;2.67;;;;;;;24.92;39.45;98682.41;4945070;28;20221;-61
2021/05/19 06:29:19;;;;;;;6.45;2.70;;;;;;;25.16;39.29;98684.47;4945332;29;20039;-62
2021/05/19 06:31:44;;;;;;;7.10;2.72;;;;;;;25.26;39.83;98681.75;4945565;29;20032;-62
2021/05/19 06:34:10;;;;;;;8.10;2.95;;;;;;;25.20;40.54;98664.63;4945153;29;20023;-61
2021/05/19 06:36:38;;;;;;;7.55;2.85;;;;;;;25.46;39.73;98672.66;4945004;29;20035;-61
2021/05/19 06:39:05;;;;;;;7.88;2.45;;;;;;;25.87;39.61;98669.47;4944908;29;20031;-62
2021/05/19 06:41:30;;;;;;;8.25;2.40;;;;;;;25.66;39.44;98675.13;4945183;29;20078;-62
2021/05/19 06:43:56;;;;;;;5.88;2.65;;;;;;;25.58;39.53;98669.75;4945171;28;20316;-62
2021/05/19 06:46:22;;;;;;;12.45;2.70;;;;;;;25.59;39.96;98690.81;4944929;29;20044;-65
2021/05/19 06:48:47;;;;;;;10.00;2.60;;;;;;;25.63;40.07;98696.66;4945017;29;20034;-62
2021/05/19 06:51:13;;;;;;;8.98;2.45;;;;;;;25.58;40.71;98701.59;4943090;29;20031;-61
2021/05/19 06:53:39;;;;;;;8.50;2.60;;;;;;;25.29;40.52;98711.41;4938844;29;20042;-62
2021/05/19 06:56:06;;;;;;;8.43;2.70;;;;;;;25.08;41.44;98694.97;4942534;29;20028;-62
2021/05/19 06:58:32;;;;;;;8.85;2.90;;;;;;;25.19;41.46;98710.66;4940273;29;20102;-61
2021/05/19 07:00:57;;;;;;;5.68;3.13;;;;;;;25.38;40.96;98711.53;4944727;29;20224;-61
2021/05/19 07:03:23;;;;;;;7.38;3.17;;;;;;;25.44;41.19;98716.22;4942334;29;20035;-60
2021/05/19 07:05:49;;;;;;;7.07;2.80;;;;;;;24.71;42.32;98751.53;4945203;29;20051;-61
2021/05/19 07:08:15;;;;;;;13.35;3.40;;;;;;;25.18;42.02;98735.47;4944607;29;20032;-60
2021/05/19 07:10:43;;;;;;;11.57;2.70;;;;;;;25.16;41.16;98742.75;4944975;28;20051;-59
2021/05/19 07:13:08;;;;;;;8.05;2.47;;;;;;;24.71;42.48;98740.94;4944577;29;20067;-60
2021/05/19 07:15:38;;;;;;;10.52;3.40;;;;;;;25.07;42.02;98741.00;4945023;29;20032;-60
2021/05/19 07:18:05;;;;;;;11.15;2.40;;;;;;;24.93;42.38;98761.72;4944251;29;20045;-60
2021/05/19 07:20:31;;;;;;;8.88;2.33;;;;;;;24.80;42.59;98764.72;4943318;29;20054;-60
2021/05/19 07:22:57;;;;;;;7.68;1.92;;;;;;;25.06;42.64;98787.88;4943032;29;20055;-61
2021/05/19 07:25:23;;;;;;;5.88;1.60;;;;;;;25.14;42.30;98771.25;4941913;29;20036;-61
2021/05/19 07:27:48;;;;;;;5.32;1.63;;;;;;;25.08;42.05;98769.16;4942798;29;20051;-61
2021/05/19 07:30:16;;;;;;;7.82;1.75;;;;;;;24.62;42.75;98774.41;4944162;29;20320;-60
2021/05/19 07:32:42;;;;;;;6.28;1.90;;;;;;;24.97;42.57;98771.06;4944409;29;20328;-60
2021/05/19 07:35:08;;;;;;;8.07;1.80;;;;;;;24.78;43.38;98779.94;4944661;29;20027;-60
2021/05/19 07:37:34;;;;;;;8.60;1.73;;;;;;;24.97;43.44;98781.66;4944151;29;20094;-60
2021/05/19 07:39:59;;;;;;;3.20;1.42;;;;;;;25.09;43.29;98784.09;4944446;29;20039;-59
2021/05/19 07:42:25;;;;;;;5.70;1.38;;;;;;;25.38;43.00;98770.66;4944529;29;20317;-59
2021/05/19 07:44:51;;;;;;;4.20;1.67;;;;;;;25.16;43.08;98793.94;4944517;29;20031;-61
2021/05/19 07:47:17;;;;;;;5.10;1.35;;;;;;;25.04;43.68;98775.75;4944432;29;20062;-59
2021/05/19 07:49:42;;;;;;;6.72;1.55;;;;;;;25.12;43.30;98797.03;4944853;29;20256;-60
2021/05/19 07:52:08;;;;;;;4.65;1.30;;;;;;;24.88;43.30;98782.50;4944485;29;20034;-59
2021/05/19 07:54:35;;;;;;;4.43;1.30;;;;;;;24.95;43.72;98788.88;4944463;29;20024;-60
2021/05/19 07:57:11;;;;;;;4.50;1.38;;;;;;;24.88;43.64;98787.81;4944199;29;20063;-60
2021/05/19 07:59:37;;;;;;;5.20;1.50;;;;;;;24.99;44.34;98784.16;4944709;29;20054;-60
2021/05/19 08:02:07;;;;;;;3.10;1.50;;;;;;;24.72;44.45;98782.34;4944303;29;20035;-62
2021/05/19 08:04:36;;;;;;;6.07;1.40;;;;;;;24.79;44.33;98786.88;4944569;29;20051;-59
2021/05/19 08:07:03;;;;;;;5.28;1.60;;;;;;;25.05;44.34;98810.03;4947788;29;20131;-60
2021/05/19 08:09:30;;;;;;;3.15;1.42;;;;;;;25.10;44.42;98801.66;4948100;28;20034;-60
2021/05/19 08:11:56;;;;;;;7.07;1.70;;;;;;;25.18;44.54;98804.38;4948138;29;20070;-59
2021/05/19 08:14:26;;;;;;;3.10;1.50;;;;;;;25.13;44.36;98798.72;4948123;29;20028;-59
2021/05/19 08:16:51;;;;;;;7.65;1.98;;;;;;;25.19;44.10;98807.91;4947991;29;20031;-60
2021/05/19 08:19:17;;;;;;;6.45;1.70;;;;;;;25.02;44.86;98809.53;4947793;29;20094;-60
2021/05/19 08:21:43;;;;;;;3.85;1.77;;;;;;;24.94;43.64;98803.16;4947923;29;20087;-60
2021/05/19 08:24:09;;;;;;;4.72;1.77;;;;;;;23.99;45.94;98812.84;4947625;29;20039;-61
2021/05/19 08:26:36;;;;;;;4.95;1.50;;;;;;;24.41;45.17;98815.16;4947153;29;20028;-60
2021/05/19 08:29:03;;;;;;;3.38;1.60;;;;;;;24.66;44.58;98804.94;4947054;29;20090;-60
2021/05/19 08:31:29;;;;;;;4.93;1.90;;;;;;;24.82;44.85;98799.00;4947763;29;20028;-58
2021/05/19 08:33:56;;;;;;;5.18;2.08;;;;;;;25.07;44.41;98804.59;4947466;29;20024;-58
2021/05/19 08:36:23;;;;;;;2.88;1.60;;;;;;;24.92;44.64;98810.38;4947483;29;20395;-59
2021/05/19 08:38:50;;;;;;;4.35;1.80;;;;;;;24.78;45.02;98813.50;4947548;29;20098;-59
2021/05/19 08:41:15;;;;;;;1.83;1.60;;;;;;;25.18;45.17;98825.59;4947660;29;20300;-60
2021/05/19 08:43:41;;;;;;;3.78;2.10;;;;;;;25.23;44.34;98818.03;4947543;29;20031;-60
2021/05/19 08:46:08;;;;;;;3.15;2.03;;;;;;;24.83;44.56;98826.31;4947421;29;20031;-60
2021/05/19 08:48:35;;;;;;;5.22;2.20;;;;;;;25.06;44.87;98829.44;4947287;29;20024;-62
2021/05/19 08:51:01;;;;;;;3.42;2.05;;;;;;;24.68;44.99;98829.44;4947506;29;20035;-60
2021/05/19 08:53:27;;;;;;;7.28;2.42;;;;;;;25.03;44.24;98827.91;4947400;29;20228;-60
2021/05/19 08:55:55;;;;;;;4.60;2.30;;;;;;;24.88;44.50;98805.53;4947520;29;20023;-58
2021/05/19 08:58:21;;;;;;;6.90;2.60;;;;;;;25.26;43.77;98838.94;4945133;29;20320;-59
2021/05/19 09:00:47;;;;;;;2.40;2.20;;;;;;;24.67;43.70;98832.22;4940105;29;20039;-59
2021/05/19 09:03:17;;;;;;;3.92;2.88;;;;;;;24.56;44.07;98841.16;4942430;29;20250;-59
2021/05/19 09:05:44;;;;;;;4.07;2.95;;;;;;;24.88;44.30;98837.31;4940159;29;20032;-59
2021/05/19 09:08:15;;;;;;;8.23;2.67;;;;;;;25.10;42.71;98796.38;4939420;29;20043;-58
2021/05/19 09:10:42;;;;;;;4.33;3.17;;;;;;;25.39;43.72;98837.78;4937270;29;20122;-58
2021/05/19 09:13:41;;;;;;;4.47;2.78;;;;;;;25.25;43.36;98833.78;4936633;29;20313;-58
2021/05/19 09:16:09;;;;;;;6.65;2.70;;;;;;;25.32;43.45;98841.06;4938948;29;20028;-58
2021/05/19 09:18:48;;;;;;;7.22;3.03;;;;;;;25.40;44.10;98844.78;4932725;29;20063;-58
2021/05/19 09:21:44;;;;;;;9.48;3.03;;;;;;;25.14;43.80;98822.41;4936196;29;20117;-58
2021/05/19 09:24:34;;;;;;;5.53;2.60;;;;;;;24.49;44.50;98858.59;4934027;29;20043;-58
2021/05/19 09:27:02;;;;;;;6.93;2.80;;;;;;;24.41;45.21;98864.59;4938542;29;20236;-57
2021/05/19 09:29:29;;;;;;;3.00;2.70;;;;;;;24.29;44.94;98848.03;4940822;29;20034;-57
2021/05/19 09:32:09;;;;;;;4.78;3.00;;;;;;;24.12;44.36;98813.38;4938606;29;20034;-59
2021/05/19 09:34:38;;;;;;;5.28;3.05;;;;;;;24.33;45.00;98860.03;4940962;29;20051;-57
2021/05/19 09:37:16;;;;;;;3.92;2.78;;;;;;;24.48;44.94;98802.16;4940602;29;20269;-57
2021/05/19 09:39:58;;;;;;;5.88;4.00;;;;;;;24.41;45.08;98857.50;4942418;29;20059;-57
2021/05/19 09:42:37;;;;;;;5.18;3.10;;;;;;;24.59;44.30;98849.66;4938600;29;20128;-57
2021/05/19 09:45:27;;;;;;;5.35;3.00;;;;;;;24.58;45.36;98857.72;4939370;29;20032;-57
2021/05/19 09:47:56;;;;;;;6.43;3.00;;;;;;;24.57;44.69;98848.13;4938766;29;20283;-58
2021/05/19 09:50:41;;;;;;;5.55;3.13;;;;;;;24.02;45.96;98804.63;4938878;29;20023;-58
2021/05/19 09:53:09;;;;;;;4.63;2.97;;;;;;;24.37;44.47;98849.97;4933073;29;20035;-57
2021/05/19 09:55:38;;;;;;;3.95;2.83;;;;;;;24.47;44.69;98850.81;4933742;29;20321;-57
2021/05/19 09:58:04;;;;;;;5.78;3.15;;;;;;;24.68;44.52;98873.63;4940158;29;20040;-58
2021/05/19 10:00:31;;;;;;;6.15;3.30;;;;;;;24.38;45.06;98862.25;4941694;29;20031;-57
2021/05/19 10:03:00;;;;;;;4.90;3.40;;;;;;;24.66;44.56;98862.38;4943874;29;20046;-58
2021/05/19 10:05:41;;;;;;;4.93;3.50;;;;;;;24.72;44.50;98857.31;4937755;29;20028;-59
2021/05/19 10:08:06;;;;;;;6.70;3.47;;;;;;;24.37;44.19;98876.44;4944855;29;20170;-58
2021/05/19 10:10:32;;;;;;;4.38;3.50;;;;;;;24.32;44.77;98866.28;4944593;29;20032;-56
2021/05/19 10:12:59;;;;;;;6.90;3.40;;;;;;;24.64;43.97;98878.38;4940651;29;20202;-58
2021/05/19 10:15:30;;;;;;;4.97;3.60;;;;;;;24.33;44.28;98827.41;4934680;29;20121;-58
2021/05/19 10:18:06;;;;;;;6.27;3.50;;;;;;;24.54;45.04;98833.38;4934492;29;20350;-58
2021/05/19 10:20:36;;;;;;;5.25;3.33;;;;;;;24.50;43.26;98847.88;4934322;29;20446;-60
2021/05/19 10:23:05;;;;;;;5.15;3.80;;;;;;;24.83;43.19;98876.63;4934849;29;20336;-58
2021/05/19 10:25:44;;;;;;;7.82;3.20;;;;;;;24.97;44.35;98877.03;4933297;29;20041;-58
2021/05/19 10:28:11;;;;;;;4.75;3.30;;;;;;;25.27;43.58;98866.31;4939061;29;20059;-58
2021/05/19 10:30:54;;;;;;;5.80;3.53;;;;;;;25.46;43.50;98876.00;4943418;29;20039;-58
2021/05/19 10:33:29;;;;;;;5.80;3.58;;;;;;;25.41;43.33;98876.44;4939330;29;20185;-57
2021/05/19 10:36:20;;;;;;;5.00;3.08;;;;;;;25.42;42.25;98885.22;4941778;28;20032;-58
2021/05/19 10:38:46;;;;;;;3.70;3.40;;;;;;;25.56;41.95;98882.06;4944507;29;20634;-57
2021/05/19 10:41:12;;;;;;;6.18;3.47;;;;;;;25.84;42.39;98879.38;4941758;29;20047;-57
2021/05/19 10:43:49;;;;;;;6.40;3.38;;;;;;;26.02;43.16;98884.69;4937366;29;20039;-57
2021/05/19 10:47:15;;;;;;;7.13;3.40;;;;;;;25.90;41.72;98873.44;4942157;29;20059;-57
2021/05/19 10:58:00;;;;;;;4.07;3.72;;;;;;;25.84;41.03;98874.91;4940441;29;20047;-58
2021/05/19 11:00:28;;;;;;;4.82;3.80;;;;;;;25.70;40.66;98872.75;4943239;29;20134;-58
2021/05/19 11:02:54;;;;;;;5.05;3.42;;;;;;;25.89;40.60;98881.56;4941468;29;20031;-57
2021/05/19 11:05:33;;;;;;;6.25;3.70;;;;;;;25.56;41.11;98844.94;4943540;29;20038;-57
2021/05/19 11:08:10;;;;;;;4.15;3.83;;;;;;;25.62;40.70;98897.38;4943755;29;20253;-58
2021/05/19 11:10:37;;;;;;;4.82;3.72;;;;;;;25.77;40.86;98889.75;4943976;28;20554;-58
2021/05/19 11:13:04;;;;;;;6.20;3.85;;;;;;;25.97;41.15;98879.00;4943786;29;20027;-58
2021/05/19 11:15:44;;;;;;;6.22;3.83;;;;;;;26.12;40.99;98889.94;4943799;29;20028;-58
2021/05/19 11:18:18;;;;;;;5.25;3.92;;;;;;;25.36;42.60;98861.97;4943112;29;20070;-58
2021/05/19 11:20:45;;;;;;;4.63;4.03;;;;;;;24.96;42.39;98904.50;4942135;29;20261;-58
2021/05/19 11:23:11;;;;;;;4.95;3.90;;;;;;;25.12;42.24;98903.03;4942761;29;20342;-58
2021/05/19 11:25:37;;;;;;;4.03;3.60;;;;;;;25.18;41.51;98897.16;4943939;29;20071;-58
2021/05/19 11:28:03;;;;;;;4.30;3.90;;;;;;;25.38;41.35;98889.97;4943971;29;20043;-58
2021/05/19 11:30:29;;;;;;;3.92;3.45;;;;;;;25.66;41.14;98885.47;4943842;29;20032;-58
2021/05/19 11:33:11;;;;;;;7.45;4.25;;;;;;;25.63;41.12;98866.41;4944237;29;20044;-58
2021/05/19 11:35:37;;;;;;;6.53;3.90;;;;;;;26.05;40.61;98886.22;4943061;29;20577;-58
2021/05/19 11:38:08;;;;;;;6.47;3.63;;;;;;;26.00;40.55;98891.97;4944044;29;20031;-58
2021/05/19 11:40:51;;;;;;;7.43;3.28;;;;;;;25.87;40.01;98900.28;4940236;29;20072;-58
2021/05/19 11:43:20;;;;;;;5.03;3.70;;;;;;;25.72;40.18;98892.00;4927060;29;20047;-58
2021/05/19 11:45:52;;;;;;;5.68;3.97;;;;;;;25.96;40.25;98883.44;4928414;29;20063;-57
2021/05/19 11:48:19;;;;;;;4.57;3.88;;;;;;;25.99;40.88;98895.59;4928722;29;20075;-57